createdAt,value
2023-04-04T00:00:41.638Z,42.10
2023-04-04T00:03:10.155Z,42.00
2023-04-04T00:05:38.281Z,42.30
2023-04-04T00:08:06.766Z,43.00
2023-04-04T00:10:36.109Z,43.50
2023-04-04T00:13:05.638Z,44.40
2023-04-04T00:15:34.703Z,44.60
2023-04-04T00:18:03.981Z,44.40
2023-04-04T00:20:32.267Z,43.90
2023-04-04T00:23:00.644Z,45.10
2023-04-04T00:25:28.712Z,45.50
2023-04-04T00:28:00.920Z,45.50
2023-04-04T00:30:29.679Z,43.90
2023-04-04T00:32:58.369Z,44.10
2023-04-04T00:35:26.710Z,44.10
2023-04-04T00:37:54.720Z,43.00
2023-04-04T00:40:22.741Z,43.40
2023-04-04T00:42:51.157Z,43.60
2023-04-04T00:45:20.660Z,44.10
2023-04-04T00:47:49.634Z,44.80
2023-04-04T00:50:17.989Z,44.00
2023-04-04T00:52:46.151Z,44.70
2023-04-04T00:55:14.182Z,44.70
2023-04-04T00:57:42.325Z,44.20
2023-04-04T01:00:11.836Z,44.50
2023-04-04T01:02:41.284Z,45.20
2023-04-04T01:05:09.842Z,44.90
2023-04-04T01:07:37.873Z,45.10
2023-04-04T01:10:06.636Z,45.60
2023-04-04T01:12:35.905Z,46.60
2023-04-04T01:15:04.097Z,47.80
2023-04-04T01:17:32.136Z,47.20
2023-04-04T01:20:06.812Z,47.30
2023-04-04T01:22:35.982Z,46.60
2023-04-04T01:25:06.799Z,45.00
2023-04-04T01:27:36.234Z,44.10
2023-04-04T01:30:05.278Z,44.80
2023-04-04T01:32:44.360Z,43.90
2023-04-04T01:35:23.473Z,45.00
2023-04-04T01:38:02.296Z,44.80
2023-04-04T01:40:35.562Z,44.40
2023-04-04T01:43:05.261Z,44.50
2023-04-04T01:45:33.756Z,44.20
2023-04-04T01:48:01.705Z,45.10
2023-04-04T01:50:29.770Z,45.40
2023-04-04T01:52:57.788Z,45.70
2023-04-04T01:55:26.058Z,45.50
2023-04-04T01:57:54.043Z,44.30
2023-04-04T02:00:23.424Z,45.20
2023-04-04T02:02:51.736Z,44.60
2023-04-04T02:05:19.722Z,45.00
2023-04-04T02:07:50.646Z,45.20
2023-04-04T02:10:18.791Z,45.20
2023-04-04T02:12:46.808Z,44.60
2023-04-04T02:15:14.911Z,44.50
2023-04-04T02:17:48.697Z,45.00
2023-04-04T02:20:19.482Z,45.00
2023-04-04T02:22:53.454Z,46.90
2023-04-04T02:25:22.367Z,46.60
2023-04-04T02:27:50.640Z,46.50
2023-04-04T02:30:19.485Z,46.70
2023-04-04T02:32:51.004Z,46.30
2023-04-04T02:35:18.996Z,47.60
2023-04-04T02:37:48.192Z,48.00
2023-04-04T02:40:16.415Z,47.00
2023-04-04T02:42:45.137Z,47.00
2023-04-04T02:45:14.772Z,47.50
2023-04-04T02:47:43.739Z,47.50
2023-04-04T02:50:13.249Z,48.20
2023-04-04T02:52:41.257Z,48.30
2023-04-04T02:55:10.501Z,48.50
2023-04-04T02:57:38.518Z,48.20
2023-04-04T03:00:07.542Z,48.40
2023-04-04T03:02:35.764Z,48.60
2023-04-04T03:05:04.014Z,48.80
2023-04-04T03:07:33.288Z,50.50
2023-04-04T03:10:01.529Z,50.70
2023-04-04T03:12:29.538Z,51.20
2023-04-04T03:14:57.587Z,50.40
2023-04-04T03:17:26.809Z,50.30
2023-04-04T03:19:54.799Z,50.90
2023-04-04T03:22:22.932Z,50.70
2023-04-04T03:24:52.306Z,50.40
2023-04-04T03:27:20.252Z,50.80
2023-04-04T03:29:48.191Z,51.40
2023-04-04T03:32:16.251Z,51.50
2023-04-04T03:34:44.850Z,50.90
2023-04-04T03:37:13.147Z,50.70
2023-04-04T03:39:41.398Z,50.30
2023-04-04T03:42:10.977Z,50.40
2023-04-04T03:44:41.617Z,50.10
2023-04-04T03:47:09.556Z,50.20
2023-04-04T03:49:37.563Z,50.20
2023-04-04T03:52:05.975Z,50.10
2023-04-04T03:54:34.710Z,49.80
2023-04-04T03:57:03.836Z,49.40
2023-04-04T03:59:33.152Z,48.60
2023-04-04T04:02:01.340Z,48.20
2023-04-04T04:04:29.332Z,48.50
2023-04-04T04:06:57.493Z,48.70
2023-04-04T04:09:25.505Z,48.60
2023-04-04T04:11:53.568Z,48.70
2023-04-04T04:14:22.350Z,48.60
2023-04-04T04:16:51.737Z,48.20
2023-04-04T04:19:19.714Z,49.10
2023-04-04T04:21:48.101Z,49.90
2023-04-04T04:24:16.188Z,51.70
2023-04-04T04:26:44.200Z,49.00
2023-04-04T04:29:12.365Z,50.50
2023-04-04T04:31:40.667Z,52.70
2023-04-04T04:34:10.550Z,52.00
2023-04-04T04:36:38.501Z,52.20
2023-04-04T04:39:06.889Z,50.80
2023-04-04T04:41:34.814Z,50.60
2023-04-04T04:44:03.421Z,49.70
2023-04-04T04:46:31.944Z,49.90
2023-04-04T04:48:59.905Z,50.90
2023-04-04T04:51:29.230Z,50.60
2023-04-04T04:53:57.321Z,50.50
2023-04-04T04:56:25.290Z,53.10
2023-04-04T04:58:53.215Z,53.00
2023-04-04T05:01:21.464Z,52.70
2023-04-04T05:03:51.984Z,49.60
2023-04-04T05:06:22.030Z,52.00
2023-04-04T05:08:51.360Z,52.20
2023-04-04T05:11:19.302Z,52.10
2023-04-04T05:13:47.293Z,51.90
2023-04-04T05:16:15.347Z,52.10
2023-04-04T05:18:43.350Z,51.30
2023-04-04T05:21:11.432Z,52.70
2023-04-04T05:23:39.338Z,53.10
2023-04-04T05:26:08.633Z,50.50
2023-04-04T05:28:36.597Z,52.10
2023-04-04T05:31:04.613Z,52.40
2023-04-04T05:33:32.549Z,49.90
2023-04-04T05:36:01.269Z,50.60
2023-04-04T05:38:29.524Z,53.10
2023-04-04T05:40:57.515Z,53.50
2023-04-04T05:43:27.268Z,52.30
2023-04-04T05:45:55.286Z,49.20
2023-04-04T05:48:23.236Z,49.30
2023-04-04T05:50:51.162Z,50.10
2023-04-04T05:53:19.234Z,50.80
2023-04-04T05:55:47.190Z,51.30
2023-04-04T05:58:15.170Z,52.60
2023-04-04T06:00:44.462Z,52.00
2023-04-04T06:03:12.866Z,50.60
2023-04-04T06:05:41.123Z,51.00
2023-04-04T06:08:09.079Z,50.80
2023-04-04T06:10:37.430Z,51.60
2023-04-04T06:13:05.607Z,51.70
2023-04-04T06:15:33.519Z,51.40
2023-04-04T06:18:02.872Z,50.60
2023-04-04T06:20:30.866Z,51.90
2023-04-04T06:23:01.161Z,51.10
2023-04-04T06:25:29.224Z,51.50
2023-04-04T06:27:57.166Z,51.70
2023-04-04T06:30:25.213Z,51.70
2023-04-04T06:32:53.383Z,50.00
2023-04-04T06:35:22.955Z,50.20
2023-04-04T06:37:56.283Z,48.90
2023-04-04T06:40:24.398Z,50.80
2023-04-04T06:42:55.103Z,48.60
2023-04-04T06:45:23.775Z,46.90
2023-04-04T06:47:53.575Z,48.10
2023-04-04T06:50:23.346Z,47.20
2023-04-04T06:52:51.520Z,47.60
2023-04-04T06:55:19.918Z,46.50
2023-04-04T06:57:47.840Z,45.30
2023-04-04T07:00:16.885Z,45.90
2023-04-04T07:02:45.061Z,44.50
2023-04-04T07:05:14.473Z,44.20
2023-04-04T07:07:43.768Z,43.60
2023-04-04T07:10:12.196Z,43.70
2023-04-04T07:12:40.122Z,41.30
2023-04-04T07:15:09.338Z,42.10
2023-04-04T07:17:39.289Z,43.10
2023-04-04T07:20:08.450Z,42.20
2023-04-04T07:22:38.784Z,42.80
2023-04-04T07:25:10.025Z,42.70
2023-04-04T07:27:38.000Z,40.40
2023-04-04T07:30:06.809Z,43.30
2023-04-04T07:32:34.817Z,40.90
2023-04-04T07:35:02.868Z,39.50
2023-04-04T07:37:30.792Z,38.30
2023-04-04T07:39:58.938Z,37.80
2023-04-04T07:42:28.249Z,37.30
2023-04-04T07:44:56.417Z,36.60
2023-04-04T07:47:24.551Z,36.90
2023-04-04T07:49:52.660Z,37.20
2023-04-04T07:52:20.613Z,36.00
2023-04-04T07:54:48.965Z,36.40
2023-04-04T07:57:16.911Z,36.00
2023-04-04T07:59:46.217Z,35.80
2023-04-04T08:02:14.284Z,34.70
2023-04-04T08:04:42.493Z,34.90
2023-04-04T08:07:10.557Z,34.70
2023-04-04T08:09:38.524Z,35.20
2023-04-04T08:12:06.818Z,34.80
2023-04-04T08:14:34.952Z,34.30
2023-04-04T08:17:04.252Z,34.20
2023-04-04T08:19:32.204Z,34.20
2023-04-04T08:22:00.163Z,34.10
2023-04-04T08:24:28.319Z,34.00
2023-04-04T08:27:04.694Z,34.90
2023-04-04T08:29:34.370Z,34.10
2023-04-04T08:32:03.753Z,34.10
2023-04-04T08:34:32.008Z,34.20
2023-04-04T08:37:00.198Z,33.10
2023-04-04T08:39:28.266Z,32.90
2023-04-04T08:42:02.952Z,33.10
2023-04-04T08:44:32.012Z,33.50
2023-04-04T08:47:05.299Z,33.40
2023-04-04T08:49:38.454Z,32.70
2023-04-04T08:52:07.515Z,32.60
2023-04-04T08:54:36.165Z,32.50
2023-04-04T08:57:04.451Z,31.60
2023-04-04T08:59:33.330Z,32.20
2023-04-04T09:02:15.796Z,31.20
2023-04-04T09:04:54.874Z,31.70
2023-04-04T09:07:34.150Z,32.10
2023-04-04T09:10:04.070Z,31.10
2023-04-04T09:12:33.441Z,31.60
2023-04-04T09:15:01.787Z,31.40
2023-04-04T09:17:29.903Z,30.60
2023-04-04T09:20:04.129Z,30.00
2023-04-04T09:22:32.698Z,30.50
2023-04-04T09:25:00.809Z,30.50
2023-04-04T09:27:28.794Z,30.00
2023-04-04T09:30:05.602Z,30.30
2023-04-04T09:32:34.906Z,30.20
2023-04-04T09:35:04.360Z,30.10
2023-04-04T09:37:32.456Z,30.30
2023-04-04T09:40:00.771Z,30.40
2023-04-04T09:42:29.303Z,29.80
2023-04-04T09:44:57.611Z,29.70
2023-04-04T09:49:59.410Z,30.00
2023-04-04T09:52:28.794Z,30.60
2023-04-04T09:54:58.526Z,30.00
2023-04-04T09:57:29.160Z,30.00
2023-04-04T10:00:01.570Z,30.10
2023-04-04T10:02:32.470Z,30.00
2023-04-04T10:07:34.045Z,29.80
2023-04-04T10:10:07.447Z,29.30
2023-04-04T10:12:35.742Z,29.90
2023-04-04T10:15:04.378Z,29.20
2023-04-04T10:17:37.314Z,29.10
2023-04-04T10:20:06.874Z,30.10
2023-04-04T10:22:37.317Z,29.60
2023-04-04T10:25:05.913Z,29.10
2023-04-04T10:27:34.306Z,28.90
2023-04-04T10:30:02.843Z,29.40
2023-04-04T10:32:49.313Z,28.80
2023-04-04T10:35:18.801Z,29.70
2023-04-04T10:37:55.444Z,29.50
2023-04-04T10:40:26.206Z,28.70
2023-04-04T10:42:54.502Z,28.20
2023-04-04T10:45:22.546Z,27.50
2023-04-04T10:47:51.759Z,28.20
2023-04-04T10:50:21.891Z,28.10
2023-04-04T10:52:52.083Z,28.20
2023-04-04T10:55:20.517Z,28.40
2023-04-04T10:57:52.568Z,28.30
2023-04-04T11:00:23.534Z,28.60
2023-04-04T11:02:55.696Z,29.10
2023-04-04T11:05:26.726Z,29.20
2023-04-04T11:08:08.099Z,28.70
2023-04-04T11:10:37.921Z,28.00
2023-04-04T11:13:14.060Z,27.60
2023-04-04T11:15:55.745Z,28.10
2023-04-04T11:18:33.323Z,27.80
2023-04-04T11:21:05.402Z,28.20
2023-04-04T11:24:14.305Z,28.00
2023-04-04T11:26:45.449Z,27.50
2023-04-04T11:29:24.045Z,27.60
2023-04-04T11:31:52.417Z,27.10
2023-04-04T11:34:33.625Z,27.50
2023-04-04T11:37:16.500Z,26.80
2023-04-04T11:39:56.800Z,27.40
2023-04-04T11:42:24.906Z,27.40
2023-04-04T11:45:06.942Z,27.00
2023-04-04T11:47:35.028Z,27.10
2023-04-04T11:50:08.377Z,27.60
2023-04-04T11:52:36.672Z,27.10
2023-04-04T11:55:16.745Z,26.30
2023-04-04T11:57:44.710Z,26.80
2023-04-04T12:00:15.638Z,27.10
2023-04-04T12:02:43.967Z,26.60
2023-04-04T12:05:13.311Z,26.60
2023-04-04T12:07:42.116Z,26.90
2023-04-04T12:10:12.169Z,26.90
2023-04-04T12:12:41.738Z,26.50
2023-04-04T12:15:17.514Z,26.30
2023-04-04T12:17:49.205Z,26.60
2023-04-04T12:20:17.524Z,25.40
2023-04-04T12:22:49.722Z,26.40
2023-04-04T12:25:20.965Z,26.40
2023-04-04T12:27:49.593Z,26.00
2023-04-04T12:30:18.852Z,26.20
2023-04-04T12:32:48.291Z,26.50
2023-04-04T12:35:17.078Z,26.00
2023-04-04T12:38:02.005Z,25.90
2023-04-04T12:40:40.688Z,26.50
2023-04-04T12:43:10.288Z,25.90
2023-04-04T12:45:40.083Z,25.90
2023-04-04T12:48:17.897Z,25.80
2023-04-04T12:50:53.739Z,25.90
2023-04-04T12:55:57.220Z,25.50
2023-04-04T12:58:26.690Z,26.20
2023-04-04T13:00:56.960Z,26.00
2023-04-04T13:03:26.388Z,26.00
2023-04-04T13:05:54.454Z,26.00
2023-04-04T13:08:22.674Z,26.20
2023-04-04T13:11:03.680Z,25.70
2023-04-04T13:13:37.202Z,25.60
2023-04-04T13:16:07.780Z,25.00
2023-04-04T13:18:38.765Z,24.50
2023-04-04T13:21:08.530Z,25.60
2023-04-04T13:23:37.750Z,26.40
2023-04-04T13:26:08.886Z,26.50
2023-04-04T13:28:37.199Z,26.30
2023-04-04T13:31:06.212Z,26.60
2023-04-04T13:33:34.264Z,26.10
2023-04-04T13:36:02.791Z,26.10
2023-04-04T13:38:31.690Z,25.30
2023-04-04T13:41:00.641Z,26.00
2023-04-04T13:43:30.010Z,26.20
2023-04-04T13:45:58.000Z,26.60
2023-04-04T13:48:26.433Z,26.40
2023-04-04T13:50:55.500Z,26.40
2023-04-04T13:53:23.872Z,26.40
2023-04-04T13:56:13.902Z,26.80
2023-04-04T13:58:41.942Z,26.70
2023-04-04T14:01:10.216Z,26.60
2023-04-04T14:03:38.256Z,26.20
2023-04-04T14:06:10.945Z,25.90
2023-04-04T14:08:39.750Z,26.30
2023-04-04T14:11:08.037Z,26.20
2023-04-04T14:13:36.414Z,26.20
2023-04-04T14:16:06.233Z,25.80
2023-04-04T14:18:34.585Z,25.60
2023-04-04T14:21:03.045Z,26.10
2023-04-04T14:23:31.649Z,26.00
2023-04-04T14:25:59.837Z,25.80
2023-04-04T14:28:28.178Z,26.10
2023-04-04T14:30:56.293Z,26.00
2023-04-04T14:33:26.408Z,25.50
2023-04-04T14:35:54.389Z,25.70
2023-04-04T14:38:22.373Z,26.00
2023-04-04T14:40:50.537Z,26.10
2023-04-04T14:43:18.453Z,25.80
2023-04-04T14:45:46.440Z,26.00
2023-04-04T14:48:14.389Z,26.50
2023-04-04T14:50:43.779Z,26.40
2023-04-04T14:53:11.832Z,25.90
2023-04-04T14:55:39.973Z,25.90
2023-04-04T14:58:08.286Z,26.10
2023-04-04T15:00:36.353Z,25.70
2023-04-04T15:03:07.283Z,25.70
2023-04-04T15:05:35.491Z,25.70
2023-04-04T15:08:05.186Z,25.30
2023-04-04T15:10:33.158Z,24.70
2023-04-04T15:13:01.440Z,24.50
2023-04-04T15:15:30.057Z,24.40
2023-04-04T15:17:58.135Z,24.90
2023-04-04T15:20:26.141Z,24.50
2023-04-04T15:22:54.538Z,25.00
2023-04-04T15:25:24.070Z,26.10
2023-04-04T15:27:52.063Z,25.70
2023-04-04T15:30:20.105Z,26.20
2023-04-04T15:32:48.138Z,26.40
2023-04-04T15:35:20.842Z,26.10
2023-04-04T15:37:49.931Z,26.30
2023-04-04T15:40:18.325Z,26.70
2023-04-04T15:42:47.755Z,26.70
2023-04-04T15:45:16.568Z,26.60
2023-04-04T15:47:45.243Z,26.60
2023-04-04T15:50:13.530Z,26.40
2023-04-04T15:52:41.915Z,26.70
2023-04-04T15:55:13.388Z,26.90
2023-04-04T15:57:44.406Z,27.00
2023-04-04T16:00:16.919Z,27.00
2023-04-04T16:02:45.090Z,27.40
2023-04-04T16:05:13.279Z,27.40
2023-04-04T16:07:41.310Z,27.40
2023-04-04T16:10:10.667Z,27.50
2023-04-04T16:12:38.605Z,27.70
2023-04-04T16:15:08.508Z,27.60
2023-04-04T16:17:37.954Z,27.70
2023-04-04T16:20:07.434Z,27.80
2023-04-04T16:22:35.583Z,27.80
2023-04-04T16:25:03.770Z,28.00
2023-04-04T16:27:31.784Z,28.10
2023-04-04T16:29:59.751Z,28.30
2023-04-04T16:32:28.087Z,28.40
2023-04-04T16:34:57.399Z,28.50
2023-04-04T16:37:25.639Z,28.70
2023-04-04T16:39:53.625Z,28.80
2023-04-04T16:42:21.643Z,28.80
2023-04-04T16:44:49.913Z,28.90
2023-04-04T16:47:18.065Z,29.20
2023-04-04T16:49:47.980Z,29.50
2023-04-04T16:52:17.882Z,29.70
2023-04-04T16:54:45.944Z,29.80
2023-04-04T16:57:13.983Z,30.00
2023-04-04T16:59:41.947Z,30.00
2023-04-04T17:02:10.948Z,30.00
2023-04-04T17:04:41.647Z,30.10
2023-04-04T17:07:10.448Z,30.10
2023-04-04T17:09:39.868Z,30.20
2023-04-04T17:12:12.684Z,30.70
2023-04-04T17:14:40.812Z,30.90
2023-04-04T17:17:10.363Z,31.10
2023-04-04T17:19:38.846Z,31.40
2023-04-04T17:22:06.972Z,31.60
2023-04-04T17:24:34.978Z,31.70
2023-04-04T17:27:04.344Z,32.00
2023-04-04T17:29:32.261Z,32.00
2023-04-04T17:32:00.452Z,32.00
2023-04-04T17:34:28.585Z,32.30
2023-04-04T17:36:56.833Z,32.50
2023-04-04T17:39:25.109Z,32.70
2023-04-04T17:41:53.815Z,32.80
2023-04-04T17:44:23.254Z,33.00
2023-04-04T17:46:51.220Z,33.10
2023-04-04T17:49:20.153Z,33.20
2023-04-04T17:51:49.221Z,33.30
2023-04-04T17:54:17.911Z,33.40
2023-04-04T17:56:47.113Z,33.50
2023-04-04T17:59:17.337Z,33.70
2023-04-04T18:01:47.960Z,33.80
2023-04-04T18:04:16.310Z,33.80
2023-04-04T18:06:44.238Z,33.90
2023-04-04T18:09:12.763Z,34.10
2023-04-04T18:11:41.115Z,34.20
2023-04-04T18:14:09.092Z,34.30
2023-04-04T18:16:40.404Z,34.40
2023-04-04T18:19:11.564Z,34.40
2023-04-04T18:21:39.845Z,34.50
2023-04-04T18:24:11.291Z,34.50
2023-04-04T18:26:39.362Z,34.60
2023-04-04T18:29:07.463Z,34.70
2023-04-04T18:31:35.413Z,34.70
2023-04-04T18:34:03.528Z,35.00
2023-04-04T18:36:32.857Z,34.90
2023-04-04T18:39:01.647Z,35.10
2023-04-04T18:41:29.736Z,35.10
2023-04-04T18:43:57.690Z,35.30
2023-04-04T18:46:25.695Z,35.40
2023-04-04T18:48:53.771Z,35.40
2023-04-04T18:51:23.116Z,35.40
2023-04-04T18:53:53.043Z,35.50
2023-04-04T18:56:21.579Z,35.60
2023-04-04T18:58:49.651Z,35.80
2023-04-04T19:01:17.816Z,35.80
2023-04-04T19:03:48.135Z,36.10
2023-04-04T19:06:16.649Z,36.00
2023-04-04T19:08:45.871Z,36.40
2023-04-04T19:11:15.876Z,35.90
2023-04-04T19:13:43.955Z,35.80
2023-04-04T19:16:12.124Z,35.80
2023-04-04T19:18:40.153Z,35.80
2023-04-04T19:21:10.189Z,36.10
2023-04-04T19:23:39.365Z,36.30
2023-04-04T19:26:07.612Z,36.40
2023-04-04T19:28:37.342Z,36.50
2023-04-04T19:31:10.820Z,36.60
2023-04-04T19:33:39.247Z,36.60
2023-04-04T19:36:09.852Z,36.90
2023-04-04T19:38:39.485Z,36.70
2023-04-04T19:41:12.520Z,36.80
2023-04-04T19:43:45.012Z,37.00
2023-04-04T19:46:15.360Z,37.10
2023-04-04T19:48:46.128Z,37.90
2023-04-04T19:51:37.357Z,37.20
2023-04-04T19:54:08.148Z,37.30
2023-04-04T19:56:37.674Z,37.40
2023-04-04T19:59:10.521Z,37.50
2023-04-04T20:01:44.760Z,37.50
2023-04-04T20:04:15.682Z,37.70
2023-04-04T20:06:43.698Z,37.70
2023-04-04T20:09:26.350Z,37.70
2023-04-04T20:11:54.785Z,37.80
2023-04-04T20:14:24.407Z,37.60
2023-04-04T20:16:52.605Z,38.00
2023-04-04T20:19:21.856Z,37.90
2023-04-04T20:21:50.034Z,38.00
2023-04-04T20:24:18.958Z,37.50
2023-04-04T20:26:52.407Z,37.70
2023-04-04T20:29:25.472Z,37.70
2023-04-04T20:31:55.129Z,37.50
2023-04-04T20:34:37.134Z,37.70
2023-04-04T20:37:09.329Z,38.20
2023-04-04T20:39:41.250Z,38.30
2023-04-04T20:42:20.119Z,39.10
2023-04-04T20:44:49.511Z,38.50
2023-04-04T20:47:44.419Z,38.40
2023-04-04T20:50:45.674Z,38.40
2023-04-04T20:53:21.195Z,38.90
2023-04-04T20:55:50.713Z,38.90
2023-04-04T20:58:28.452Z,38.90
2023-04-04T21:00:59.233Z,39.10
2023-04-04T21:03:37.903Z,39.40
2023-04-04T21:06:14.730Z,39.40
2023-04-04T21:08:49.620Z,39.70
2023-04-04T21:11:25.122Z,40.10
2023-04-04T21:13:53.174Z,40.00
2023-04-04T21:16:25.404Z,39.40
2023-04-04T21:18:57.948Z,39.50
2023-04-04T21:21:26.705Z,40.20
2023-04-04T21:23:56.679Z,40.10
2023-04-04T21:26:33.039Z,40.70
2023-04-04T21:29:03.041Z,40.80
2023-04-04T21:31:37.072Z,40.80
2023-04-04T21:34:11.089Z,40.60
2023-04-04T21:36:39.210Z,40.70
2023-04-04T21:39:10.683Z,41.00
2023-04-04T21:41:38.639Z,41.30
2023-04-04T21:44:08.206Z,41.50
2023-04-04T21:46:39.029Z,41.10
2023-04-04T21:49:08.086Z,41.20
2023-04-04T21:51:36.295Z,41.50
2023-04-04T21:54:04.685Z,42.00
2023-04-04T21:56:32.703Z,41.70
2023-04-04T21:59:01.917Z,42.10
2023-04-04T22:01:30.645Z,42.40
2023-04-04T22:04:00.650Z,42.70
2023-04-04T22:06:29.085Z,42.80
2023-04-04T22:08:58.989Z,43.50
2023-04-04T22:11:27.831Z,44.70
2023-04-04T22:14:04.002Z,46.10
2023-04-04T22:16:37.096Z,46.80
2023-04-04T22:19:07.405Z,47.10
2023-04-04T22:21:37.117Z,46.10
2023-04-04T22:24:06.481Z,45.90
2023-04-04T22:26:34.724Z,47.20
2023-04-04T22:29:05.299Z,47.70
2023-04-04T22:31:35.019Z,47.40
2023-04-04T22:34:06.615Z,47.10
2023-04-04T22:36:35.666Z,48.80
2023-04-04T22:39:03.795Z,49.00
2023-04-04T22:41:31.735Z,48.80
2023-04-04T22:43:59.851Z,48.60
2023-04-04T22:46:29.439Z,48.80
2023-04-04T22:49:05.693Z,48.20
2023-04-04T22:51:43.125Z,48.10
2023-04-04T22:54:13.133Z,47.90
2023-04-04T22:56:41.844Z,46.20
2023-04-04T22:59:09.959Z,46.90
2023-04-04T23:01:38.188Z,47.50
2023-04-04T23:04:06.699Z,47.40
2023-04-04T23:06:38.536Z,47.30
2023-04-04T23:09:07.914Z,47.50
2023-04-04T23:11:36.645Z,48.60
2023-04-04T23:14:09.100Z,48.70
2023-04-04T23:16:37.589Z,49.40
2023-04-04T23:19:05.599Z,49.10
2023-04-04T23:21:34.994Z,48.40
2023-04-04T23:24:05.782Z,50.80
2023-04-04T23:26:34.086Z,51.80
2023-04-04T23:29:03.054Z,51.90
2023-04-04T23:31:31.476Z,50.90
2023-04-04T23:33:59.857Z,52.40
2023-04-04T23:36:27.849Z,53.30
2023-04-04T23:38:57.242Z,54.10
2023-04-04T23:41:25.299Z,53.60
2023-04-04T23:43:54.098Z,52.50
2023-04-04T23:46:22.535Z,51.40
2023-04-04T23:48:50.824Z,52.30
2023-04-04T23:51:18.877Z,53.80
2023-04-04T23:53:46.872Z,54.00
2023-04-04T23:56:16.510Z,55.50
2023-04-04T23:58:44.640Z,55.50
